Time;durP1;ratioP1;P1;durP2;ratioP2;P2;SDS_P1;SDS_P2;PMS_P1;PMS_P2;Temp;Humidity;BMP_temperature;BMP_pressure;BME280_temperature;BME280_humidity;BME280_pressure;Samples;Min_cycle;Max_cycle;Signal;HPM_P1;HPM_P2
2024/04/10 00:00:17;;;;;;;1.08;0.98;;;;;;;17.61;57.83;99602.28;4371198;32;33234;-83
2024/04/10 00:02:44;;;;;;;0.60;0.60;;;;;;;17.47;58.11;99609.59;4376871;32;33271;-84
2024/04/10 00:05:11;;;;;;;0.40;0.40;;;;;;;17.50;57.79;99601.38;4365874;32;34328;-84
2024/04/10 00:07:37;;;;;;;1.85;0.75;;;;;;;17.48;57.93;99598.84;4377161;32;33993;-83
2024/04/10 00:10:05;;;;;;;0.77;0.77;;;;;;;17.50;57.83;99607.56;4377092;32;32424;-83
2024/04/10 00:12:31;;;;;;;0.28;0.28;;;;;;;17.88;56.28;99604.69;4389752;32;34946;-83
2024/04/10 00:14:58;;;;;;;2.65;0.95;;;;;;;18.11;55.95;99605.56;4377543;32;33401;-82
2024/04/10 00:17:29;;;;;;;2.33;1.27;;;;;;;17.72;56.92;99605.94;4376990;32;32045;-83
2024/04/10 00:19:55;;;;;;;0.20;0.20;;;;;;;17.43;58.17;99616.16;4389613;32;34719;-83
2024/04/10 00:22:22;;;;;;;0.15;0.10;;;;;;;17.37;58.31;99622.78;4389280;32;32528;-83
2024/04/10 00:24:52;;;;;;;1.08;0.68;;;;;;;17.20;59.10;99628.56;4377054;32;32222;-82
2024/04/10 00:27:19;;;;;;;0.50;0.50;;;;;;;17.20;59.27;99628.56;4402259;32;32841;-83
2024/04/10 00:29:45;;;;;;;0.50;0.40;;;;;;;17.16;59.21;99638.59;4376844;32;32376;-83
2024/04/10 00:32:12;;;;;;;0.10;0.10;;;;;;;17.29;58.73;99636.72;4364862;32;35021;-83
2024/04/10 00:34:39;;;;;;;0.10;0.10;;;;;;;17.15;58.85;99637.75;4364587;32;33617;-83
2024/04/10 00:37:05;;;;;;;0.17;0.15;;;;;;;17.16;59.01;99643.94;4364557;32;33146;-83
2024/04/10 00:39:33;;;;;;;0.98;0.70;;;;;;;17.24;58.78;99651.37;4365436;32;33642;-84
2024/04/10 00:41:59;;;;;;;0.40;0.40;;;;;;;17.20;58.95;99647.22;4378531;32;32673;-84
2024/04/10 00:44:26;;;;;;;1.48;1.08;;;;;;;17.33;58.46;99651.56;4378805;32;31881;-84
2024/04/10 00:46:53;;;;;;;0.65;0.65;;;;;;;17.25;58.61;99656.59;4375011;32;33537;-84
2024/04/10 00:49:20;;;;;;;6.70;0.32;;;;;;;17.25;58.31;99658.41;4373800;32;32428;-84
2024/04/10 00:51:46;;;;;;;0.28;0.20;;;;;;;17.26;58.34;99650.28;4391317;32;34230;-84
2024/04/10 00:54:13;;;;;;;1.65;1.55;;;;;;;17.43;57.57;99664.22;4353765;32;32564;-84
2024/04/10 00:56:40;;;;;;;8.30;0.75;;;;;;;17.56;56.87;99665.81;4378741;32;33346;-84
2024/04/10 00:59:07;;;;;;;1.37;0.93;;;;;;;17.72;56.22;99670.03;4378450;32;32257;-84
2024/04/10 01:01:34;;;;;;;0.80;0.30;;;;;;;17.98;55.78;99662.75;4383937;32;34311;-84
2024/04/10 01:04:01;;;;;;;0.10;0.05;;;;;;;17.89;56.18;99675.81;4399624;32;32965;-84
2024/04/10 01:06:30;;;;;;;11.50;1.25;;;;;;;17.94;56.34;99671.94;4400340;32;33614;-84
2024/04/10 01:08:58;;;;;;;0.32;0.32;;;;;;;18.12;55.47;99666.06;4384508;32;34489;-84
2024/04/10 01:11:25;;;;;;;1.02;0.85;;;;;;;18.08;55.67;99675.28;4398793;32;34521;-84
2024/04/10 01:13:52;;;;;;;0.55;0.52;;;;;;;18.30;55.38;99670.97;4375420;32;33030;-83
2024/04/10 01:16:19;;;;;;;0.08;0.03;;;;;;;18.29;55.42;99672.78;4387019;32;33717;-83
2024/04/10 01:18:45;;;;;;;1.65;0.85;;;;;;;18.61;54.45;99678.28;4382644;32;33598;-83
2024/04/10 01:21:13;;;;;;;0.20;0.20;;;;;;;18.68;54.25;99684.88;4385667;32;34819;-83
2024/04/10 01:23:40;;;;;;;1.48;1.02;;;;;;;18.74;54.18;99677.31;4365138;32;32538;-85
2024/04/10 01:26:06;;;;;;;1.10;0.93;;;;;;;18.54;55.00;99681.56;4379955;32;33950;-83
2024/04/10 01:28:33;;;;;;;0.22;0.22;;;;;;;18.81;53.94;99676.72;4368936;32;33997;-83
2024/04/10 01:31:00;;;;;;;0.90;0.75;;;;;;;18.58;54.86;99686.53;4374157;32;33624;-83
2024/04/10 01:33:27;;;;;;;0.90;0.57;;;;;;;18.62;54.88;99689.84;4386569;32;33523;-82
2024/04/10 01:35:53;;;;;;;0.80;0.47;;;;;;;18.57;54.95;99687.50;4399862;32;33400;-83
2024/04/10 01:38:20;;;;;;;0.40;0.25;;;;;;;18.49;55.14;99684.59;4384479;32;33135;-83
2024/04/10 01:40:46;;;;;;;0.68;0.68;;;;;;;18.74;54.37;99688.87;4389570;32;33345;-84
2024/04/10 01:43:13;;;;;;;10.43;1.27;;;;;;;18.61;54.77;99688.97;4386587;32;34932;-83
2024/04/10 01:45:40;;;;;;;0.20;0.20;;;;;;;18.78;54.39;99681.47;4373220;32;33448;-83
2024/04/10 01:48:07;;;;;;;0.22;0.22;;;;;;;18.62;54.92;99690.69;4371807;32;33129;-83
2024/04/10 01:50:33;;;;;;;1.23;0.90;;;;;;;18.82;54.20;99685.59;4385500;32;33160;-83
2024/04/10 01:53:01;;;;;;;14.80;1.30;;;;;;;18.99;53.61;99687.78;4396714;32;33328;-83
2024/04/10 01:55:27;;;;;;;31.77;1.45;;;;;;;19.12;53.12;99688.47;4398718;32;34532;-82
2024/04/10 01:57:54;;;;;;;1.12;0.98;;;;;;;18.91;53.47;99696.41;4399239;32;34408;-82
2024/04/10 02:00:22;;;;;;;1.27;1.17;;;;;;;18.82;53.51;99704.31;4402728;32;35367;-82
2024/04/10 02:02:49;;;;;;;0.57;0.57;;;;;;;18.63;53.46;99703.06;4383841;32;32283;-82
2024/04/10 02:05:16;;;;;;;2.47;0.50;;;;;;;18.88;52.88;99706.50;4371697;32;32816;-82
2024/04/10 02:07:42;;;;;;;0.65;0.45;;;;;;;18.47;53.80;99699.91;4355772;32;32986;-82
2024/04/10 02:10:09;;;;;;;4.53;1.23;;;;;;;18.45;53.90;99709.00;4363916;32;34826;-82
2024/04/10 02:12:36;;;;;;;0.30;0.30;;;;;;;18.85;52.78;99714.81;4395304;32;33546;-83
2024/04/10 02:15:03;;;;;;;7.12;1.55;;;;;;;19.12;51.87;99711.72;4385980;32;32326;-83
2024/04/10 02:17:30;;;;;;;0.00;0.00;;;;;;;19.14;51.46;99707.97;4376269;32;35319;-83
2024/04/10 02:19:56;;;;;;;16.35;0.95;;;;;;;18.87;52.04;99721.72;4386036;32;35168;-83
2024/04/10 02:22:23;;;;;;;2.55;0.60;;;;;;;19.14;51.10;99713.31;4398099;32;32381;-83
2024/04/10 02:24:52;;;;;;;3.47;1.67;;;;;;;18.87;51.56;99721.72;4399547;32;33768;-82
2024/04/10 02:27:18;;;;;;;1.20;0.52;;;;;;;18.49;51.97;99727.37;4384748;32;33343;-82
2024/04/10 02:29:45;;;;;;;0.10;0.10;;;;;;;18.31;52.53;99734.13;4395884;32;34782;-82
2024/04/10 02:32:12;;;;;;;0.88;0.45;;;;;;;18.05;53.38;99739.66;4366163;32;33546;-82
2024/04/10 02:34:38;;;;;;;0.20;0.20;;;;;;;18.27;52.56;99740.66;4396029;32;33494;-82
2024/04/10 02:37:04;;;;;;;0.50;0.50;;;;;;;18.27;52.23;99740.66;4387754;32;33470;-82
2024/04/10 02:39:31;;;;;;;0.80;0.80;;;;;;;18.33;51.93;99737.56;4380527;32;34921;-82
2024/04/10 02:41:58;;;;;;;0.10;0.10;;;;;;;18.43;51.82;99738.53;4394466;32;33625;-82
2024/04/10 02:44:25;;;;;;;0.10;0.10;;;;;;;18.10;52.40;99745.50;4384664;32;33817;-82
2024/04/10 02:46:53;;;;;;;13.77;1.40;;;;;;;18.42;51.47;99758.22;4398021;32;33794;-84
2024/04/10 02:49:20;;;;;;;1.02;0.55;;;;;;;18.37;51.44;99760.38;4392370;32;34114;-84
2024/04/10 02:51:46;;;;;;;0.43;0.43;;;;;;;18.39;51.35;99753.97;4386713;32;34940;-84
2024/04/10 02:54:13;;;;;;;2.30;0.90;;;;;;;18.22;51.82;99758.88;4377260;32;33917;-84
2024/04/10 02:56:40;;;;;;;0.08;0.05;;;;;;;18.34;51.46;99757.97;4395511;32;34740;-82
2024/04/10 02:59:07;;;;;;;0.03;0.03;;;;;;;17.97;52.47;99766.09;4368209;32;117887;-82
2024/04/10 03:01:35;;;;;;;0.20;0.08;;;;;;;18.11;51.75;99771.25;4395921;32;32542;-82
2024/04/10 03:04:01;;;;;;;0.45;0.32;;;;;;;18.14;51.77;99781.72;4400516;32;33903;-82
2024/04/10 03:06:28;;;;;;;0.00;0.00;;;;;;;18.02;51.85;99784.44;4399588;32;34839;-82
2024/04/10 03:08:55;;;;;;;0.45;0.45;;;;;;;17.98;52.00;99781.13;4387580;32;33187;-83
2024/04/10 03:11:21;;;;;;;0.03;0.03;;;;;;;17.87;52.17;99783.75;4397035;32;32797;-83
2024/04/10 03:13:48;;;;;;;0.10;0.10;;;;;;;17.52;53.26;99795.19;4400289;32;33838;-83
2024/04/10 03:16:15;;;;;;;0.82;0.82;;;;;;;17.67;52.88;99798.56;4395426;32;33602;-83
2024/04/10 03:18:41;;;;;;;1.62;0.50;;;;;;;17.69;52.68;99801.09;4392244;32;34222;-83
2024/04/10 03:21:08;;;;;;;0.00;0.00;;;;;;;17.84;52.23;99805.34;4383420;32;33553;-84
2024/04/10 03:23:35;;;;;;;0.30;0.30;;;;;;;17.84;52.34;99808.03;4366462;32;33792;-84
2024/04/10 03:26:05;;;;;;;1.50;0.75;;;;;;;17.63;52.67;99816.63;4383226;32;33717;-84
2024/04/10 03:28:35;;;;;;;5.80;1.20;;;;;;;18.01;51.71;99818.31;4398447;32;33497;-83
2024/04/10 03:31:06;;;;;;;1.20;0.50;;;;;;;18.00;51.41;99811.28;4384495;32;33581;-84
2024/04/10 03:33:34;;;;;;;0.00;0.00;;;;;;;17.70;52.41;99810.81;4402054;32;33813;-84
2024/04/10 03:36:00;;;;;;;10.75;1.17;;;;;;;17.87;51.67;99813.16;4384093;32;32622;-84
2024/04/10 03:38:27;;;;;;;0.10;0.10;;;;;;;17.62;52.33;99822.94;4385014;32;33074;-84
2024/04/10 03:40:54;;;;;;;0.43;0.43;;;;;;;17.44;52.43;99823.41;4397119;32;33650;-84
2024/04/10 03:43:21;;;;;;;0.80;0.70;;;;;;;17.46;52.67;99834.81;4398171;32;32618;-83
2024/04/10 03:45:49;;;;;;;0.10;0.10;;;;;;;17.48;52.17;99833.75;4397317;32;32766;-84
2024/04/10 03:48:15;;;;;;;0.00;0.00;;;;;;;17.40;52.07;99836.09;4387189;32;33553;-83
2024/04/10 03:50:42;;;;;;;0.20;0.20;;;;;;;17.25;52.37;99830.03;4397436;32;33254;-84
2024/04/10 03:53:09;;;;;;;0.28;0.28;;;;;;;17.25;52.25;99835.38;4383884;32;33122;-83
2024/04/10 03:55:36;;;;;;;0.37;0.37;;;;;;;17.14;52.50;99844.16;4382531;32;33130;-83
2024/04/10 03:58:03;;;;;;;5.05;0.77;;;;;;;17.10;52.28;99842.66;4387497;32;33071;-83
2024/04/10 04:00:30;;;;;;;0.20;0.20;;;;;;;17.32;51.67;99857.13;4396561;32;33807;-83
2024/04/10 04:02:57;;;;;;;0.50;0.50;;;;;;;17.10;52.04;99847.13;4397207;32;34560;-83
2024/04/10 04:05:23;;;;;;;0.10;0.10;;;;;;;17.17;51.90;99842.22;4399185;32;34093;-85
2024/04/10 04:07:50;;;;;;;0.80;0.80;;;;;;;17.12;51.96;99846.06;4390512;32;32170;-85
2024/04/10 04:10:17;;;;;;;0.10;0.10;;;;;;;17.41;51.11;99845.81;4373087;32;33547;-85
2024/04/10 04:12:44;;;;;;;0.00;0.00;;;;;;;17.27;51.26;99851.28;4386038;32;32765;-84
2024/04/10 04:15:10;;;;;;;0.65;0.65;;;;;;;17.03;51.86;99852.03;4397468;32;33246;-84
2024/04/10 04:17:37;;;;;;;0.00;0.00;;;;;;;16.99;51.79;99858.53;4395308;32;32834;-84
2024/04/10 04:20:06;;;;;;;0.85;0.52;;;;;;;17.21;51.22;99843.72;4399645;32;34314;-84
2024/04/10 04:22:33;;;;;;;0.25;0.25;;;;;;;16.49;52.90;99852.16;4382932;32;32937;-84
2024/04/10 04:25:00;;;;;;;0.00;0.00;;;;;;;16.64;52.15;99848.44;4381924;32;34106;-84
2024/04/10 04:27:32;;;;;;;0.20;0.15;;;;;;;16.72;51.56;99852.44;4397487;32;32588;-84
2024/04/10 04:29:59;;;;;;;0.30;0.10;;;;;;;16.88;51.15;99851.28;4383801;32;33777;-84
2024/04/10 04:32:26;;;;;;;0.70;0.62;;;;;;;17.13;50.24;99846.91;4384777;32;33422;-83
2024/04/10 04:34:52;;;;;;;0.17;0.17;;;;;;;17.11;50.22;99849.69;4397896;32;33784;-85
2024/04/10 04:37:20;;;;;;;0.00;0.00;;;;;;;16.80;50.96;99866.94;4390083;32;33697;-84
2024/04/10 04:39:48;;;;;;;0.52;0.32;;;;;;;16.38;51.64;99863.53;4384594;32;33092;-83
2024/04/10 04:42:14;;;;;;;0.47;0.28;;;;;;;16.50;51.73;99864.53;4397364;32;33920;-83
2024/04/10 04:44:41;;;;;;;0.62;0.62;;;;;;;17.03;50.03;99870.69;4383682;32;34964;-83
2024/04/10 04:47:07;;;;;;;0.37;0.25;;;;;;;16.85;50.33;99875.50;4397515;32;34460;-84
2024/04/10 04:49:34;;;;;;;2.00;0.20;;;;;;;16.36;51.27;99873.44;4391521;32;32496;-83
2024/04/10 04:52:00;;;;;;;0.03;0.03;;;;;;;16.61;51.10;99871.78;4386169;32;33894;-83
2024/04/10 04:54:27;;;;;;;0.08;0.08;;;;;;;16.14;52.06;99883.78;4384955;32;34823;-83
2024/04/10 04:56:54;;;;;;;0.22;0.20;;;;;;;16.69;50.56;99884.63;4380555;32;33260;-84
2024/04/10 04:59:20;;;;;;;0.17;0.17;;;;;;;16.68;50.64;99896.25;4385281;32;35172;-84
2024/04/10 05:01:48;;;;;;;0.57;0.50;;;;;;;16.97;49.95;99895.13;4377340;32;33488;-84
2024/04/10 05:07:00;;;;;;;0.40;0.40;;;;;;;16.69;50.40;99911.28;4370801;32;33632;-85
2024/04/10 05:09:27;;;;;;;0.40;0.40;;;;;;;16.23;51.48;99923.16;4381733;32;34421;-84
2024/04/10 05:11:54;;;;;;;1.15;0.47;;;;;;;16.31;51.33;99926.19;4365003;32;32650;-84
2024/04/10 05:14:21;;;;;;;0.00;0.00;;;;;;;16.15;51.64;99927.28;4388942;32;35952;-85
2024/04/10 05:16:47;;;;;;;0.80;0.80;;;;;;;16.54;50.59;99923.81;4368843;32;33805;-83
2024/04/10 05:19:13;;;;;;;0.13;0.05;;;;;;;16.56;50.51;99917.41;4383673;32;33964;-84
2024/04/10 05:21:40;;;;;;;0.43;0.43;;;;;;;16.62;50.14;99922.34;4374276;32;34073;-84
2024/04/10 05:24:07;;;;;;;0.00;0.00;;;;;;;16.79;49.44;99925.72;4389904;32;34433;-84
2024/04/10 05:26:35;;;;;;;0.50;0.20;;;;;;;16.96;49.22;99924.59;4379157;32;33516;-84
2024/04/10 05:29:02;;;;;;;0.15;0.13;;;;;;;16.76;49.69;99915.25;4364192;32;32551;-84
2024/04/10 05:31:29;;;;;;;0.50;0.50;;;;;;;16.72;49.66;99916.44;4390988;32;34521;-84
2024/04/10 05:33:55;;;;;;;0.20;0.20;;;;;;;16.79;49.63;99929.25;4377410;32;33353;-83
2024/04/10 05:36:22;;;;;;;0.00;0.00;;;;;;;16.73;49.25;99937.66;4365555;32;33460;-84
2024/04/10 05:38:49;;;;;;;1.75;0.70;;;;;;;16.41;50.17;99945.09;4377486;32;32913;-84
2024/04/10 05:41:16;;;;;;;0.20;0.20;;;;;;;16.53;49.81;99951.44;4369602;32;35233;-84
2024/04/10 05:43:45;;;;;;;0.00;0.00;;;;;;;16.61;49.43;99949.94;4378694;32;33055;-83
2024/04/10 05:46:11;;;;;;;0.00;0.00;;;;;;;16.60;49.22;99953.56;4370810;32;33441;-84
2024/04/10 05:48:38;;;;;;;0.30;0.30;;;;;;;16.43;49.13;99953.84;4378250;32;34248;-86
2024/04/10 05:51:05;;;;;;;0.10;0.10;;;;;;;16.68;48.78;99963.75;4365761;32;33871;-86
2024/04/10 05:53:33;;;;;;;2.12;1.48;;;;;;;16.76;48.11;99958.81;4366507;32;33011;-86
2024/04/10 05:56:06;;;;;;;0.35;0.30;;;;;;;16.65;48.83;99959.44;4370355;32;34281;-86
2024/04/10 05:58:35;;;;;;;0.10;0.10;;;;;;;16.67;48.17;99977.19;4386977;32;33230;-86
2024/04/10 06:01:08;;;;;;;0.30;0.25;;;;;;;16.87;48.00;99968.75;4376656;32;32349;-86
2024/04/10 06:03:35;;;;;;;0.00;0.00;;;;;;;16.83;48.44;99983.22;4378489;32;32678;-86
2024/04/10 06:06:12;;;;;;;0.00;0.00;;;;;;;16.64;48.63;99989.75;4379283;32;32980;-86
2024/04/10 06:08:42;;;;;;;0.00;0.00;;;;;;;16.61;48.93;99994.41;4388015;32;34115;-86
2024/04/10 06:11:09;;;;;;;0.00;0.00;;;;;;;16.30;49.67;99998.22;4377859;32;32743;-87
2024/04/10 06:13:36;;;;;;;0.70;0.28;;;;;;;16.17;50.06;99994.63;4390082;32;34154;-86
2024/04/10 06:16:05;;;;;;;0.00;0.00;;;;;;;16.33;49.65;100001.56;4377245;32;32740;-86
2024/04/10 06:18:32;;;;;;;0.00;0.00;;;;;;;16.81;48.60;99995.81;4390342;32;31890;-86
2024/04/10 06:21:03;;;;;;;0.15;0.15;;;;;;;16.84;48.45;99996.44;4377845;32;33853;-86
2024/04/10 06:23:31;;;;;;;0.00;0.00;;;;;;;16.95;48.15;99997.53;4392364;32;34336;-86
2024/04/10 06:25:58;;;;;;;0.10;0.10;;;;;;;16.89;48.28;100004.16;4365183;32;33432;-85
2024/04/10 06:28:25;;;;;;;0.17;0.10;;;;;;;16.58;49.46;100002.63;4391872;32;32611;-90
2024/04/10 06:31:00;;;;;;;0.00;0.00;;;;;;;16.59;49.63;100002.53;4354909;32;34320;-88
2024/04/10 06:33:26;;;;;;;0.03;0.03;;;;;;;16.86;48.72;99996.38;4373109;32;34029;-90
2024/04/10 06:35:53;;;;;;;0.10;0.10;;;;;;;17.09;47.85;100010.81;4389903;32;34025;-83
2024/04/10 06:38:20;;;;;;;0.00;0.00;;;;;;;16.99;48.33;100007.06;4389879;32;34092;-82
2024/04/10 06:41:00;;;;;;;0.00;0.00;;;;;;;17.05;47.95;100010.19;4388258;32;34180;-82
2024/04/10 06:43:27;;;;;;;0.55;0.55;;;;;;;16.59;48.81;100007.84;4382794;32;33234;-82
2024/04/10 06:45:58;;;;;;;0.00;0.00;;;;;;;16.09;50.30;100017.31;4392328;32;36545;-82
2024/04/10 06:48:25;;;;;;;0.00;0.00;;;;;;;16.15;50.37;100024.03;4377394;32;33039;-82
2024/04/10 06:50:55;;;;;;;0.00;0.00;;;;;;;16.58;49.19;100029.28;4361176;32;34180;-82
2024/04/10 06:53:22;;;;;;;0.00;0.00;;;;;;;16.53;49.65;100040.25;4377343;32;32062;-83
2024/04/10 06:56:08;;;;;;;0.00;0.00;;;;;;;16.41;49.73;100041.03;4391343;32;32484;-82
2024/04/10 06:58:38;;;;;;;0.35;0.35;;;;;;;16.20;50.21;100042.41;4372003;32;34246;-83
2024/04/10 07:01:06;;;;;;;2.53;1.02;;;;;;;16.48;49.38;100042.34;4388300;32;34052;-82
2024/04/10 07:03:34;;;;;;;0.00;0.00;;;;;;;16.21;50.54;100036.13;4405657;32;33970;-82
2024/04/10 07:06:09;;;;;;;0.00;0.00;;;;;;;16.95;48.90;100038.44;4407780;32;35589;-83
2024/04/10 07:08:41;;;;;;;0.10;0.00;;;;;;;16.61;49.59;100045.91;4391363;32;33698;-82
2024/04/10 07:11:14;;;;;;;0.05;0.05;;;;;;;16.83;48.75;100045.41;4383458;32;33922;-83
2024/04/10 07:13:45;;;;;;;0.00;0.00;;;;;;;16.84;48.73;100048.94;4406112;32;34490;-83
2024/04/10 07:16:12;;;;;;;0.05;0.05;;;;;;;17.16;48.52;100068.16;4391907;32;33121;-83
2024/04/10 07:18:39;;;;;;;0.10;0.10;;;;;;;17.36;48.24;100045.47;4404101;32;33590;-83
2024/04/10 07:21:08;;;;;;;1.15;0.45;;;;;;;17.26;48.17;100060.38;4404241;32;34080;-82
2024/04/10 07:23:40;;;;;;;0.20;0.20;;;;;;;17.19;48.64;100051.09;4404682;32;33950;-83
2024/04/10 07:26:13;;;;;;;0.22;0.22;;;;;;;16.99;48.69;100049.75;4405495;32;33747;-82
2024/04/10 07:28:41;;;;;;;0.28;0.28;;;;;;;17.35;47.55;100038.41;4367916;32;32831;-82
2024/04/10 07:31:09;;;;;;;0.00;0.00;;;;;;;17.32;48.49;100067.97;4404978;32;33223;-86
2024/04/10 07:33:36;;;;;;;0.10;0.10;;;;;;;17.56;47.75;100060.97;4395120;32;32486;-88
2024/04/10 07:36:13;;;;;;;0.25;0.20;;;;;;;17.86;47.04;100060.72;4392850;32;34523;-82
2024/04/10 07:38:41;;;;;;;0.00;0.00;;;;;;;17.86;46.55;100070.56;4391856;32;33794;-82
2024/04/10 07:41:08;;;;;;;0.10;0.10;;;;;;;17.80;47.31;100074.50;4380484;32;35529;-83
2024/04/10 07:43:36;;;;;;;0.30;0.30;;;;;;;17.67;47.76;100074.47;4403184;32;34467;-82
2024/04/10 07:46:10;;;;;;;0.00;0.00;;;;;;;17.87;47.17;100080.28;4386512;32;34243;-84
2024/04/10 07:48:38;;;;;;;2.60;0.93;;;;;;;17.75;47.74;100076.59;4392730;32;33040;-84
2024/04/10 07:51:07;;;;;;;0.00;0.00;;;;;;;17.59;47.74;100071.44;4405154;32;34594;-84
2024/04/10 07:53:35;;;;;;;0.00;0.00;;;;;;;17.96;47.02;100074.28;4406347;32;33763;-84
2024/04/10 07:56:03;;;;;;;0.50;0.50;;;;;;;18.41;46.48;100078.16;4394884;32;32718;-84
2024/04/10 07:58:30;;;;;;;0.05;0.05;;;;;;;18.45;46.08;100078.81;4404944;32;33233;-84
2024/04/10 08:00:58;;;;;;;0.00;0.00;;;;;;;18.68;46.25;100082.50;4404994;32;32515;-85
2024/04/10 08:03:26;;;;;;;0.03;0.00;;;;;;;18.01;47.29;100096.19;4381046;32;32812;-85
2024/04/10 08:05:53;;;;;;;0.00;0.00;;;;;;;18.34;45.82;100082.25;4405064;32;33816;-85
2024/04/10 08:08:20;;;;;;;0.00;0.00;;;;;;;18.78;45.41;100085.38;4391872;32;33863;-85
2024/04/10 08:10:54;;;;;;;0.52;0.52;;;;;;;18.53;46.11;100089.81;4390377;32;33131;-85
2024/04/10 08:13:21;;;;;;;0.00;0.00;;;;;;;18.63;45.73;100096.22;4380522;32;32682;-84
2024/04/10 08:15:59;;;;;;;0.35;0.35;;;;;;;18.74;45.54;100099.94;4366266;32;34033;-84
2024/04/10 08:18:29;;;;;;;1.33;1.23;;;;;;;18.96;45.04;100100.09;4404511;32;33472;-84
2024/04/10 08:21:09;;;;;;;0.00;0.00;;;;;;;18.80;45.29;100104.84;4403095;32;34174;-85
2024/04/10 08:23:38;;;;;;;0.60;0.60;;;;;;;18.59;46.54;100097.38;4392353;32;33743;-85
2024/04/10 08:26:13;;;;;;;0.00;0.00;;;;;;;18.91;45.55;100107.59;4404486;32;35109;-85
2024/04/10 08:28:50;;;;;;;2.72;0.75;;;;;;;18.75;45.73;100112.34;4386894;32;34119;-84
2024/04/10 08:31:27;;;;;;;0.00;0.00;;;;;;;18.85;45.51;100121.44;4381490;32;34796;-85
2024/04/10 08:33:54;;;;;;;0.00;0.00;;;;;;;18.47;46.29;100125.03;4404226;32;34729;-85
2024/04/10 08:36:22;;;;;;;0.25;0.25;;;;;;;19.08;45.45;100125.94;4391262;32;33153;-86
2024/04/10 08:38:50;;;;;;;0.00;0.00;;;;;;;18.89;45.33;100130.94;4392071;32;33620;-87
2024/04/10 08:41:18;;;;;;;0.00;0.00;;;;;;;18.82;45.73;100146.59;4405332;32;34827;-87
2024/04/10 08:43:47;;;;;;;0.30;0.30;;;;;;;18.53;46.37;100145.13;4384860;32;34373;-87
2024/04/10 08:46:15;;;;;;;0.13;0.13;;;;;;;18.83;45.83;100142.94;4391504;32;32899;-87
2024/04/10 08:48:44;;;;;;;0.00;0.00;;;;;;;18.90;46.50;100140.69;4392708;32;32475;-86
2024/04/10 08:51:14;;;;;;;1.17;0.30;;;;;;;19.22;44.61;100145.47;4379879;32;33230;-86
2024/04/10 08:53:42;;;;;;;0.00;0.00;;;;;;;19.43;45.29;100151.94;4405399;32;34620;-87
2024/04/10 08:56:14;;;;;;;0.10;0.10;;;;;;;19.12;45.37;100148.84;4404748;32;34998;-87
2024/04/10 08:58:41;;;;;;;0.00;0.00;;;;;;;19.56;43.88;100147.38;4385573;32;34305;-86
2024/04/10 09:01:07;;;;;;;0.32;0.32;;;;;;;19.38;44.53;100154.09;4406474;32;33693;-88
2024/04/10 09:03:34;;;;;;;2.65;0.65;;;;;;;19.24;45.04;100159.63;4406812;32;34844;-86
2024/04/10 09:06:05;;;;;;;0.45;0.03;;;;;;;19.85;43.28;100163.94;4394233;32;33879;-86
2024/04/10 09:08:31;;;;;;;0.85;0.30;;;;;;;19.59;44.60;100156.97;4381054;32;32036;-88
2024/04/10 09:10:58;;;;;;;0.08;0.08;;;;;;;19.62;44.08;100165.69;4392663;32;32405;-87
2024/04/10 09:13:25;;;;;;;0.10;0.10;;;;;;;19.60;44.15;100186.34;4381456;32;34594;-87
2024/04/10 09:15:59;;;;;;;0.22;0.13;;;;;;;19.28;44.86;100174.50;4406249;32;34876;-86
2024/04/10 09:18:27;;;;;;;0.08;0.08;;;;;;;19.51;44.93;100175.44;4377123;32;33014;-87
2024/04/10 09:21:07;;;;;;;14.68;0.52;;;;;;;19.75;44.03;100176.34;4395117;32;33843;-86
2024/04/10 09:23:38;;;;;;;0.00;0.00;;;;;;;20.03;43.32;100169.69;4376948;32;35945;-86
2024/04/10 09:26:05;;;;;;;0.35;0.35;;;;;;;20.12;43.04;100178.84;4391529;32;33909;-87
2024/04/10 09:28:35;;;;;;;0.20;0.10;;;;;;;19.79;43.58;100176.94;4404543;32;33249;-87
2024/04/10 09:31:03;;;;;;;0.00;0.00;;;;;;;20.13;43.45;100183.22;4413153;32;33402;-87
2024/04/10 09:33:33;;;;;;;0.00;0.00;;;;;;;19.74;44.58;100187.13;4405441;32;33381;-87
2024/04/10 09:36:02;;;;;;;0.20;0.20;;;;;;;19.48;44.74;100187.25;4380808;32;33674;-87
2024/04/10 09:38:34;;;;;;;0.08;0.08;;;;;;;20.18;43.85;100186.44;4380464;32;32035;-87
2024/04/10 09:41:02;;;;;;;0.30;0.20;;;;;;;19.87;44.18;100198.66;4392864;32;34062;-87
2024/04/10 09:43:31;;;;;;;0.40;0.40;;;;;;;19.95;43.89;100206.97;4380267;32;33371;-86
2024/04/10 09:45:58;;;;;;;0.52;0.52;;;;;;;20.22;43.40;100198.59;4406123;32;34235;-87
2024/04/10 09:48:28;;;;;;;0.85;0.62;;;;;;;20.16;43.32;100202.63;4386234;32;34026;-87
2024/04/10 09:50:56;;;;;;;0.10;0.10;;;;;;;19.87;44.08;100206.69;4380973;32;33868;-88
2024/04/10 09:53:23;;;;;;;0.43;0.28;;;;;;;19.76;44.06;100212.00;4392856;32;34196;-87
2024/04/10 09:55:49;;;;;;;0.62;0.20;;;;;;;19.86;43.92;100218.38;4379733;32;33871;-88
2024/04/10 09:58:16;;;;;;;0.52;0.47;;;;;;;19.94;44.61;100222.19;4393823;32;32996;-88
2024/04/10 10:00:43;;;;;;;0.00;0.00;;;;;;;19.76;44.99;100220.06;4392743;32;32688;-87
2024/04/10 10:03:11;;;;;;;0.05;0.00;;;;;;;19.94;44.03;100210.63;4393551;32;33902;-88
2024/04/10 10:05:38;;;;;;;0.93;0.47;;;;;;;19.71;44.68;100228.44;4392992;32;34611;-87
2024/04/10 10:08:07;;;;;;;0.00;0.00;;;;;;;19.69;44.96;100223.16;4406734;32;33345;-88
2024/04/10 10:10:52;;;;;;;0.32;0.32;;;;;;;19.40;45.85;100227.97;4404691;32;33732;-88
2024/04/10 10:13:42;;;;;;;0.40;0.40;;;;;;;19.60;44.86;100234.56;4380568;32;33098;-88
2024/04/10 10:16:11;;;;;;;0.40;0.30;;;;;;;19.60;45.04;100231.03;4380613;32;32780;-87
2024/04/10 10:18:38;;;;;;;0.15;0.15;;;;;;;19.66;45.24;100233.28;4394073;32;33329;-87
2024/04/10 10:21:12;;;;;;;0.00;0.00;;;;;;;19.15;46.48;100234.28;4381196;32;33254;-88
2024/04/10 10:23:40;;;;;;;0.30;0.20;;;;;;;19.18;46.49;100239.41;4381374;32;33456;-88
2024/04/10 10:26:08;;;;;;;1.65;0.45;;;;;;;19.20;46.61;100231.28;4388468;32;33476;-87
2024/04/10 10:28:39;;;;;;;0.20;0.20;;;;;;;19.35;45.63;100224.78;4405074;32;34011;-88
2024/04/10 10:31:21;;;;;;;0.10;0.10;;;;;;;19.23;46.24;100235.53;4381847;32;34522;-87
2024/04/10 10:33:48;;;;;;;1.30;0.93;;;;;;;19.76;44.82;100245.00;4393690;32;34131;-85
2024/04/10 10:36:15;;;;;;;0.32;0.22;;;;;;;19.19;45.99;100248.31;4381021;32;33982;-84
2024/04/10 10:38:41;;;;;;;0.20;0.20;;;;;;;18.99;46.59;100255.09;4379644;32;33704;-86
2024/04/10 10:41:09;;;;;;;0.22;0.22;;;;;;;18.97;46.49;100259.69;4405656;32;35672;-86
2024/04/10 10:43:37;;;;;;;0.22;0.22;;;;;;;18.76;47.67;100264.75;4392858;32;32945;-86
2024/04/10 10:46:05;;;;;;;9.75;0.75;;;;;;;18.63;47.89;100269.22;4379012;32;33896;-87
2024/04/10 10:48:32;;;;;;;0.80;0.28;;;;;;;18.89;47.20;100262.91;4394751;32;33307;-85
2024/04/10 10:50:59;;;;;;;0.22;0.10;;;;;;;19.26;46.57;100260.25;4406445;32;34074;-86
2024/04/10 10:53:26;;;;;;;0.00;0.00;;;;;;;19.20;47.35;100274.09;4406011;32;34658;-87
2024/04/10 10:55:59;;;;;;;0.30;0.13;;;;;;;19.09;47.31;100271.34;4393034;32;33678;-85
2024/04/10 10:58:26;;;;;;;0.60;0.40;;;;;;;19.43;46.58;100264.41;4392481;32;35428;-85
2024/04/10 11:00:53;;;;;;;0.45;0.45;;;;;;;19.58;45.99;100268.63;4390890;32;34197;-85
2024/04/10 11:03:21;;;;;;;0.85;0.35;;;;;;;19.34;46.75;100275.78;4376562;32;33800;-85
2024/04/10 11:05:48;;;;;;;5.93;1.62;;;;;;;19.72;45.53;100266.78;4364721;32;33563;-85
2024/04/10 11:08:22;;;;;;;0.00;0.00;;;;;;;19.95;45.34;100277.50;4390039;32;33477;-84
2024/04/10 11:10:51;;;;;;;0.80;0.43;;;;;;;19.96;44.54;100267.63;4366152;32;34047;-85
2024/04/10 11:13:18;;;;;;;0.37;0.20;;;;;;;20.03;44.85;100274.22;4376559;32;35788;-85
2024/04/10 11:15:50;;;;;;;0.52;0.50;;;;;;;19.94;45.32;100275.78;4389637;32;34082;-84
2024/04/10 11:18:21;;;;;;;0.50;0.50;;;;;;;19.28;46.42;100270.87;4378084;32;33669;-84
2024/04/10 11:20:52;;;;;;;0.43;0.15;;;;;;;19.93;45.12;100275.88;4371220;32;33840;-84
2024/04/10 11:23:19;;;;;;;0.10;0.10;;;;;;;20.04;45.18;100270.59;4393866;32;32859;-84
2024/04/10 11:25:46;;;;;;;0.73;0.52;;;;;;;20.02;44.79;100269.84;4377423;32;32720;-84
2024/04/10 11:28:13;;;;;;;0.30;0.30;;;;;;;19.86;45.41;100282.69;4388810;32;32110;-84
2024/04/10 11:30:40;;;;;;;0.60;0.45;;;;;;;19.58;45.70;100292.75;4389674;32;33707;-84
2024/04/10 11:33:07;;;;;;;0.45;0.20;;;;;;;19.63;45.66;100287.94;4391149;32;33930;-84
2024/04/10 11:35:37;;;;;;;0.10;0.10;;;;;;;19.05;46.87;100288.59;4377751;32;33668;-83